Time;durP1;ratioP1;P1;durP2;ratioP2;P2;SDS_P1;SDS_P2;PMS_P1;PMS_P2;Temp;Humidity;BMP_temperature;BMP_pressure;BME280_temperature;BME280_humidity;BME280_pressure;Samples;Min_cycle;Max_cycle;Signal;HPM_P1;HPM_P2
2021/12/30 00:01:43;;;;;;;1.30;1.20;;;4.00;99.90;;;;;;4937771;29;20195;-94
2021/12/30 00:04:17;;;;;;;0.80;0.80;;;4.00;99.90;;;;;;4943900;29;20475;-93
2021/12/30 00:06:43;;;;;;;0.80;0.70;;;4.00;99.90;;;;;;4973563;29;20440;-95
2021/12/30 00:09:14;;;;;;;0.80;0.70;;;4.00;99.90;;;;;;4970414;28;20446;-94
2021/12/30 00:11:40;;;;;;;0.80;0.70;;;4.10;99.90;;;;;;4956939;29;20235;-94
2021/12/30 00:14:07;;;;;;;0.90;0.90;;;4.20;99.90;;;;;;4959800;28;20439;-94
2021/12/30 00:17:03;;;;;;;1.20;1.13;;;4.20;99.90;;;;;;4940451;29;20430;-93
2021/12/30 00:19:36;;;;;;;5.73;3.63;;;4.30;99.90;;;;;;4959814;28;20427;-94
2021/12/30 00:22:02;;;;;;;0.70;0.63;;;4.40;99.90;;;;;;4944341;28;20553;-94
2021/12/30 00:24:28;;;;;;;2.30;2.20;;;4.40;99.90;;;;;;4968246;28;20481;-96
2021/12/30 00:26:53;;;;;;;0.90;0.90;;;4.40;99.90;;;;;;4966287;28;20937;-95
2021/12/30 00:29:20;;;;;;;1.03;0.90;;;4.40;99.90;;;;;;4938992;29;20227;-95
2021/12/30 00:31:46;;;;;;;0.77;0.70;;;4.40;99.90;;;;;;4926126;29;20707;-95
2021/12/30 00:34:12;;;;;;;2.20;2.00;;;4.50;99.90;;;;;;4938651;29;20522;-94
2021/12/30 00:36:37;;;;;;;0.80;0.70;;;4.40;99.90;;;;;;4940859;28;20546;-94
2021/12/30 00:39:03;;;;;;;1.63;1.53;;;4.50;99.90;;;;;;4936895;29;20670;-94
2021/12/30 00:41:29;;;;;;;0.80;0.70;;;4.40;99.90;;;;;;4929762;29;20187;-96
2021/12/30 00:43:55;;;;;;;0.80;0.70;;;4.50;99.90;;;;;;4937039;28;20225;-93
2021/12/30 00:46:20;;;;;;;0.80;0.80;;;4.50;99.90;;;;;;4933628;29;20560;-94
2021/12/30 00:48:46;;;;;;;1.63;1.10;;;4.60;99.90;;;;;;4937117;29;20198;-93
2021/12/30 00:51:12;;;;;;;1.10;1.00;;;4.50;99.90;;;;;;4924334;29;20563;-93
2021/12/30 00:53:38;;;;;;;0.80;0.80;;;4.50;99.90;;;;;;4937527;29;20441;-94
2021/12/30 00:56:04;;;;;;;1.17;1.00;;;4.50;99.90;;;;;;4933966;29;20198;-94
2021/12/30 00:58:41;;;;;;;1.53;1.43;;;4.50;99.90;;;;;;4935130;29;20190;-95
2021/12/30 01:01:06;;;;;;;0.80;0.70;;;4.50;99.90;;;;;;4926336;29;20457;-94
2021/12/30 01:03:34;;;;;;;0.80;0.80;;;4.50;99.90;;;;;;4933642;29;20467;-93
2021/12/30 01:06:01;;;;;;;0.80;0.80;;;4.50;99.90;;;;;;4930748;29;20191;-93
2021/12/30 01:08:27;;;;;;;1.53;1.43;;;4.50;99.90;;;;;;4932003;29;20441;-94
2021/12/30 01:10:53;;;;;;;1.33;0.93;;;4.50;99.90;;;;;;4928289;29;20447;-93
2021/12/30 01:13:24;;;;;;;3.27;1.83;;;4.50;99.90;;;;;;4924863;29;20543;-94
2021/12/30 01:16:03;;;;;;;1.90;1.80;;;4.50;99.90;;;;;;4947732;29;20186;-94
2021/12/30 01:18:54;;;;;;;1.20;1.10;;;4.50;99.90;;;;;;4943627;28;20494;-95
2021/12/30 01:21:22;;;;;;;0.80;0.70;;;4.50;99.90;;;;;;4930336;29;20493;-93
2021/12/30 01:23:47;;;;;;;0.80;0.60;;;4.60;99.90;;;;;;4953588;29;20581;-94
2021/12/30 01:26:13;;;;;;;1.03;0.93;;;4.60;99.90;;;;;;4931841;29;20450;-94
2021/12/30 01:28:39;;;;;;;0.80;0.80;;;4.60;99.90;;;;;;4929356;29;20296;-95
2021/12/30 01:31:06;;;;;;;0.80;0.70;;;4.50;99.90;;;;;;4937956;29;20195;-95
2021/12/30 01:33:31;;;;;;;0.80;0.70;;;4.60;99.90;;;;;;4926362;29;20443;-94
2021/12/30 01:35:57;;;;;;;2.70;2.50;;;4.60;99.90;;;;;;4937250;29;20457;-95
2021/12/30 01:38:23;;;;;;;0.80;0.70;;;4.60;99.90;;;;;;4929760;29;20278;-93
2021/12/30 01:40:52;;;;;;;0.80;0.63;;;4.60;99.90;;;;;;4937092;29;20192;-92
2021/12/30 01:43:19;;;;;;;0.80;0.70;;;4.80;99.90;;;;;;4934909;29;20270;-95
2021/12/30 01:45:45;;;;;;;1.57;1.47;;;4.80;99.90;;;;;;4922929;29;20452;-93
2021/12/30 01:48:12;;;;;;;0.80;0.70;;;4.80;99.90;;;;;;4922781;29;20442;-94
2021/12/30 01:50:38;;;;;;;0.80;0.70;;;4.80;99.90;;;;;;4938223;29;20439;-94
2021/12/30 01:53:04;;;;;;;1.93;1.83;;;4.90;99.90;;;;;;4945413;29;20906;-95
2021/12/30 01:55:32;;;;;;;0.80;0.70;;;4.90;99.90;;;;;;4940341;28;20463;-94
2021/12/30 01:58:00;;;;;;;0.90;0.90;;;4.90;99.90;;;;;;4937421;29;20793;-93
2021/12/30 02:00:26;;;;;;;0.80;0.70;;;4.90;99.90;;;;;;4938219;29;20443;-94
2021/12/30 02:02:52;;;;;;;0.97;0.93;;;4.90;99.90;;;;;;4936670;29;20431;-94
2021/12/30 02:05:18;;;;;;;0.80;0.70;;;5.00;99.90;;;;;;4936567;29;20606;-94
2021/12/30 02:07:44;;;;;;;0.80;0.70;;;4.90;99.90;;;;;;4921586;29;20203;-94
2021/12/30 02:10:12;;;;;;;0.83;0.83;;;5.10;99.90;;;;;;4938702;28;20194;-94
2021/12/30 02:12:39;;;;;;;0.93;0.90;;;5.10;99.90;;;;;;4934106;29;20550;-94
2021/12/30 02:15:07;;;;;;;2.50;1.97;;;5.20;99.90;;;;;;4933545;29;20444;-94
2021/12/30 02:17:33;;;;;;;1.53;1.43;;;5.30;99.90;;;;;;4936881;29;20435;-94
2021/12/30 02:20:03;;;;;;;0.80;0.80;;;5.30;99.90;;;;;;4928669;29;20447;-94
2021/12/30 02:22:28;;;;;;;3.30;1.10;;;5.30;99.90;;;;;;4937569;29;20558;-94
2021/12/30 02:24:56;;;;;;;0.90;0.90;;;5.30;99.90;;;;;;4950730;28;20982;-93
2021/12/30 02:27:22;;;;;;;2.70;2.30;;;5.40;99.90;;;;;;4953302;28;20631;-94
2021/12/30 02:29:47;;;;;;;0.80;0.70;;;5.50;99.90;;;;;;4945944;28;20952;-94
2021/12/30 02:32:13;;;;;;;0.77;0.60;;;5.60;99.90;;;;;;4921470;29;20249;-94
2021/12/30 02:34:39;;;;;;;1.17;1.07;;;5.70;99.90;;;;;;4938295;29;20191;-93
2021/12/30 02:37:06;;;;;;;2.50;2.13;;;5.70;99.90;;;;;;4930149;29;20191;-94
2021/12/30 02:39:33;;;;;;;1.07;1.00;;;5.80;99.90;;;;;;4935730;29;20330;-95
2021/12/30 02:42:00;;;;;;;1.10;0.90;;;5.80;99.90;;;;;;4943495;29;20442;-94
2021/12/30 02:44:26;;;;;;;2.23;1.23;;;5.90;99.90;;;;;;4924197;29;20546;-95
2021/12/30 02:46:53;;;;;;;0.80;0.70;;;6.00;99.90;;;;;;4936705;29;20439;-95
2021/12/30 02:49:19;;;;;;;1.90;1.47;;;6.00;99.90;;;;;;4936006;29;20442;-94
2021/12/30 02:51:45;;;;;;;0.80;0.80;;;6.00;99.90;;;;;;4939430;29;20433;-94
2021/12/30 02:54:10;;;;;;;0.80;0.70;;;6.00;99.90;;;;;;4938202;29;20453;-95
2021/12/30 02:56:36;;;;;;;3.20;1.83;;;6.10;99.90;;;;;;4922353;29;20183;-94
2021/12/30 02:59:03;;;;;;;1.20;1.10;;;6.00;99.90;;;;;;4931554;28;20250;-94
2021/12/30 03:01:31;;;;;;;2.13;1.17;;;6.10;99.90;;;;;;4937723;28;20323;-95
2021/12/30 03:04:00;;;;;;;0.80;0.80;;;6.10;99.90;;;;;;4938077;29;20574;-94
2021/12/30 03:06:26;;;;;;;0.80;0.70;;;6.10;99.90;;;;;;4936283;29;20826;-94
2021/12/30 03:08:53;;;;;;;3.43;1.00;;;6.20;99.90;;;;;;4939175;28;20427;-94
2021/12/30 03:11:20;;;;;;;0.80;0.70;;;6.20;99.90;;;;;;4939624;29;20451;-94
2021/12/30 03:13:47;;;;;;;0.80;0.60;;;6.20;99.90;;;;;;4941947;29;20804;-94
2021/12/30 03:16:24;;;;;;;0.80;0.70;;;6.20;99.90;;;;;;4941806;28;20443;-95
2021/12/30 03:18:51;;;;;;;0.80;0.67;;;6.20;99.90;;;;;;4939019;29;21050;-95
2021/12/30 03:21:20;;;;;;;1.03;0.90;;;6.30;99.90;;;;;;4934103;29;20443;-94
2021/12/30 03:23:46;;;;;;;1.40;1.30;;;6.30;99.90;;;;;;4944692;29;20596;-94
2021/12/30 03:26:13;;;;;;;0.80;0.70;;;6.30;99.90;;;;;;4959798;28;20498;-94
2021/12/30 03:28:40;;;;;;;0.80;0.70;;;6.20;99.90;;;;;;4934262;28;20495;-95
2021/12/30 03:31:07;;;;;;;1.17;1.07;;;6.30;99.90;;;;;;4959812;28;20447;-95
2021/12/30 03:33:35;;;;;;;1.47;1.37;;;6.30;99.90;;;;;;4927708;29;20435;-94
2021/12/30 03:36:03;;;;;;;0.80;0.67;;;6.30;99.90;;;;;;4954168;28;20454;-94
2021/12/30 03:38:31;;;;;;;0.80;0.60;;;6.20;99.90;;;;;;4955875;28;20434;-95
2021/12/30 03:41:00;;;;;;;0.80;0.60;;;6.20;99.90;;;;;;4938844;29;20507;-94
2021/12/30 03:43:26;;;;;;;0.80;0.70;;;6.20;99.90;;;;;;4935433;29;20469;-94
2021/12/30 03:45:52;;;;;;;0.80;0.70;;;6.10;99.90;;;;;;4928505;29;20831;-94
2021/12/30 03:48:18;;;;;;;0.80;0.60;;;6.10;99.90;;;;;;4942550;29;20439;-94
2021/12/30 03:50:45;;;;;;;0.80;0.70;;;6.10;99.90;;;;;;4936930;29;20576;-95
2021/12/30 03:53:26;;;;;;;0.80;0.63;;;6.10;99.90;;;;;;4936397;29;20442;-94
2021/12/30 03:55:54;;;;;;;0.80;0.60;;;6.20;99.90;;;;;;4944755;29;20442;-94
2021/12/30 03:58:19;;;;;;;0.80;0.60;;;6.20;99.90;;;;;;4944964;29;20537;-95
2021/12/30 04:00:45;;;;;;;0.80;0.70;;;6.20;99.90;;;;;;4958972;29;20466;-94
2021/12/30 04:03:11;;;;;;;1.13;0.93;;;6.10;99.90;;;;;;4936885;29;20189;-94
2021/12/30 04:05:37;;;;;;;0.80;0.60;;;6.10;99.90;;;;;;4953014;28;20185;-94
2021/12/30 04:08:03;;;;;;;0.80;0.70;;;6.10;99.90;;;;;;4960308;29;20190;-95
2021/12/30 04:10:30;;;;;;;0.80;0.70;;;6.10;99.90;;;;;;4949212;29;20507;-95
2021/12/30 04:12:56;;;;;;;0.80;0.70;;;6.10;99.90;;;;;;4947471;29;20222;-95
2021/12/30 04:15:22;;;;;;;0.80;0.60;;;6.10;99.90;;;;;;4947000;29;20450;-94
2021/12/30 04:17:48;;;;;;;0.80;0.70;;;6.10;99.90;;;;;;4943068;29;20449;-95
2021/12/30 04:20:15;;;;;;;0.80;0.60;;;6.10;99.90;;;;;;4946573;29;20602;-95
2021/12/30 04:22:46;;;;;;;0.80;0.60;;;6.10;99.90;;;;;;4939723;29;20190;-94
2021/12/30 04:25:13;;;;;;;0.80;0.70;;;6.00;99.90;;;;;;4964676;28;20494;-94
2021/12/30 04:27:40;;;;;;;0.80;0.70;;;6.10;99.90;;;;;;4943795;28;20574;-94
2021/12/30 04:30:16;;;;;;;0.80;0.70;;;6.00;99.90;;;;;;4943989;29;20466;-94
2021/12/30 04:32:45;;;;;;;0.80;0.70;;;6.10;99.90;;;;;;4957927;29;20426;-94
2021/12/30 04:35:12;;;;;;;0.80;0.70;;;6.10;99.90;;;;;;4956981;28;20936;-95
2021/12/30 04:37:38;;;;;;;1.07;0.97;;;6.00;99.90;;;;;;4957575;29;20434;-95
2021/12/30 04:40:06;;;;;;;0.80;0.70;;;6.00;99.90;;;;;;4949575;28;20430;-95
2021/12/30 04:42:32;;;;;;;1.00;0.90;;;6.00;99.90;;;;;;4953145;28;20182;-94
2021/12/30 04:44:58;;;;;;;0.80;0.70;;;6.00;99.90;;;;;;4964640;29;20474;-95
2021/12/30 04:47:24;;;;;;;0.80;0.60;;;6.00;99.90;;;;;;4954292;28;20628;-95
2021/12/30 04:49:52;;;;;;;1.07;0.97;;;6.00;99.90;;;;;;4947810;29;20191;-95
2021/12/30 04:52:19;;;;;;;0.80;0.80;;;6.00;99.90;;;;;;4949193;29;20450;-95
2021/12/30 04:54:46;;;;;;;0.80;0.70;;;6.00;99.90;;;;;;4933336;29;20506;-93
2021/12/30 04:57:13;;;;;;;0.80;0.70;;;6.00;99.90;;;;;;4947635;29;20495;-95
2021/12/30 04:59:39;;;;;;;0.80;0.70;;;6.00;99.90;;;;;;4928650;29;20424;-95
2021/12/30 05:02:04;;;;;;;0.80;0.60;;;5.90;99.90;;;;;;4943814;29;20437;-95
2021/12/30 05:04:30;;;;;;;0.80;0.70;;;6.00;99.90;;;;;;4946398;29;20252;-94
2021/12/30 05:06:57;;;;;;;1.20;1.10;;;5.90;99.90;;;;;;4943775;29;20286;-95
2021/12/30 05:09:28;;;;;;;0.80;0.60;;;6.00;99.90;;;;;;4947684;28;20184;-95
2021/12/30 05:11:54;;;;;;;0.80;0.70;;;6.10;99.90;;;;;;4929422;29;20436;-94
2021/12/30 05:14:23;;;;;;;0.80;0.80;;;6.10;99.90;;;;;;4931686;29;20444;-94
2021/12/30 05:16:49;;;;;;;0.80;0.60;;;6.10;99.90;;;;;;4942108;29;20446;-94
2021/12/30 05:19:14;;;;;;;0.80;0.60;;;6.10;99.90;;;;;;4939203;28;20948;-94
2021/12/30 05:21:41;;;;;;;0.80;0.70;;;6.10;99.90;;;;;;4937041;29;20184;-95
2021/12/30 05:24:09;;;;;;;0.80;0.70;;;6.10;99.90;;;;;;4931765;29;20211;-95
2021/12/30 05:26:36;;;;;;;0.80;0.70;;;6.00;99.90;;;;;;4957284;29;20474;-94
2021/12/30 05:29:09;;;;;;;0.80;0.70;;;6.00;99.90;;;;;;4969843;28;20517;-94
2021/12/30 05:31:35;;;;;;;0.80;0.67;;;6.10;99.90;;;;;;4934204;29;20440;-94
2021/12/30 05:34:11;;;;;;;1.47;1.37;;;6.10;99.90;;;;;;4942608;29;20447;-94
2021/12/30 05:36:40;;;;;;;0.80;0.70;;;6.10;99.90;;;;;;4951941;29;20222;-94
2021/12/30 05:39:30;;;;;;;0.80;0.70;;;6.10;99.90;;;;;;4951552;29;20444;-94
2021/12/30 05:42:22;;;;;;;0.80;0.63;;;6.00;99.90;;;;;;4934656;29;20448;-94
2021/12/30 05:44:53;;;;;;;3.83;1.03;;;6.00;99.90;;;;;;4933938;29;20911;-94
2021/12/30 05:47:27;;;;;;;1.00;0.80;;;6.10;99.90;;;;;;4943100;29;20467;-95
2021/12/30 05:49:53;;;;;;;0.80;0.70;;;6.00;99.90;;;;;;4948806;29;20431;-94
2021/12/30 05:52:19;;;;;;;0.80;0.70;;;6.00;99.90;;;;;;4951076;29;20471;-93
2021/12/30 05:54:44;;;;;;;1.00;0.90;;;6.10;99.90;;;;;;4940354;29;20252;-94
2021/12/30 05:57:10;;;;;;;0.80;0.80;;;6.10;99.90;;;;;;4926131;29;20263;-93
2021/12/30 05:59:36;;;;;;;0.80;0.80;;;6.10;99.90;;;;;;4923871;29;20561;-94
2021/12/30 06:02:02;;;;;;;1.93;1.30;;;6.00;99.90;;;;;;4942296;29;20451;-94
2021/12/30 06:04:28;;;;;;;0.80;0.70;;;6.00;99.90;;;;;;4943333;29;20479;-94
2021/12/30 06:06:54;;;;;;;0.80;0.60;;;6.10;99.90;;;;;;4955437;29;20446;-93
2021/12/30 06:09:26;;;;;;;0.80;0.67;;;6.20;99.90;;;;;;4945377;28;20260;-95
2021/12/30 06:11:56;;;;;;;0.80;0.63;;;6.30;99.90;;;;;;4939736;29;20207;-95
2021/12/30 06:14:21;;;;;;;0.80;0.60;;;6.20;99.90;;;;;;4934887;29;20447;-94
2021/12/30 06:16:54;;;;;;;0.80;0.60;;;6.30;99.90;;;;;;4952443;29;20426;-95
2021/12/30 06:19:24;;;;;;;0.90;0.80;;;6.30;99.90;;;;;;4943056;28;20201;-93
2021/12/30 06:21:50;;;;;;;0.80;0.67;;;6.20;99.90;;;;;;4948942;29;20446;-94
2021/12/30 06:24:16;;;;;;;0.80;0.60;;;6.30;99.90;;;;;;4942019;29;20467;-93
2021/12/30 06:26:43;;;;;;;0.80;0.60;;;6.30;99.90;;;;;;4929112;29;20943;-95
2021/12/30 06:29:09;;;;;;;1.40;0.90;;;6.30;99.90;;;;;;4961189;28;20230;-94
2021/12/30 06:31:37;;;;;;;0.80;0.70;;;6.40;99.90;;;;;;4945039;29;20442;-93
2021/12/30 06:34:02;;;;;;;0.83;0.77;;;6.40;99.90;;;;;;4931428;29;20647;-94
2021/12/30 06:36:28;;;;;;;1.00;0.90;;;6.40;99.90;;;;;;4940363;29;20452;-94
2021/12/30 06:38:53;;;;;;;0.80;0.60;;;6.40;99.90;;;;;;4940464;29;20660;-94
2021/12/30 06:41:19;;;;;;;0.80;0.70;;;6.50;99.90;;;;;;4935751;29;20682;-94
2021/12/30 06:43:44;;;;;;;1.93;0.90;;;6.40;99.90;;;;;;4923055;29;20303;-95
2021/12/30 06:46:10;;;;;;;1.57;1.47;;;6.50;99.90;;;;;;4939511;29;20686;-94
2021/12/30 06:48:37;;;;;;;0.90;0.80;;;6.40;99.90;;;;;;4922296;29;20674;-91
2021/12/30 06:51:05;;;;;;;1.00;0.90;;;6.50;99.90;;;;;;4927446;29;20190;-94
2021/12/30 06:53:31;;;;;;;0.80;0.67;;;6.50;99.90;;;;;;4937945;29;20873;-93
2021/12/30 06:55:57;;;;;;;0.80;0.70;;;6.50;99.90;;;;;;4940372;29;20430;-93
2021/12/30 06:58:23;;;;;;;1.00;0.90;;;6.50;99.90;;;;;;4932757;29;20450;-94
2021/12/30 07:00:50;;;;;;;1.00;0.90;;;6.50;99.90;;;;;;4935820;28;20193;-93
2021/12/30 07:03:16;;;;;;;0.80;0.70;;;6.50;99.90;;;;;;4926589;28;20443;-93
2021/12/30 07:05:41;;;;;;;0.80;0.70;;;6.50;99.90;;;;;;4937773;29;20457;-93
2021/12/30 07:08:07;;;;;;;0.80;0.70;;;6.40;99.90;;;;;;4933638;29;21246;-93
2021/12/30 07:10:32;;;;;;;0.80;0.70;;;6.40;99.90;;;;;;4940705;28;20188;-93
2021/12/30 07:12:58;;;;;;;0.80;0.70;;;6.40;99.90;;;;;;4947693;28;20192;-94
2021/12/30 07:15:23;;;;;;;0.80;0.70;;;6.30;99.90;;;;;;4939235;28;20744;-94
2021/12/30 07:17:49;;;;;;;0.80;0.77;;;6.30;99.90;;;;;;4931363;29;20199;-94
2021/12/30 07:20:15;;;;;;;0.80;0.80;;;6.20;99.90;;;;;;4927166;29;20285;-94
2021/12/30 07:22:40;;;;;;;0.80;0.60;;;6.20;99.90;;;;;;4945610;28;20194;-94
2021/12/30 07:25:08;;;;;;;0.80;0.70;;;6.20;99.90;;;;;;4955725;28;20224;-94
2021/12/30 07:27:33;;;;;;;1.17;0.90;;;6.20;99.90;;;;;;4944610;28;20229;-94
2021/12/30 07:29:59;;;;;;;1.43;1.37;;;6.20;99.90;;;;;;4947697;29;21011;-93
2021/12/30 07:32:25;;;;;;;1.00;0.90;;;6.20;99.90;;;;;;4925911;29;20191;-94
2021/12/30 07:34:51;;;;;;;0.97;0.87;;;6.20;99.90;;;;;;4931595;28;20264;-94
2021/12/30 07:37:17;;;;;;;1.33;1.23;;;6.20;99.90;;;;;;4930298;29;20955;-92
2021/12/30 07:39:45;;;;;;;0.80;0.80;;;6.20;99.90;;;;;;4939045;28;20197;-94
2021/12/30 07:42:11;;;;;;;0.80;0.60;;;6.20;99.90;;;;;;4939693;28;20509;-94
2021/12/30 07:44:38;;;;;;;0.90;0.90;;;6.20;99.90;;;;;;4934462;29;20981;-93
2021/12/30 07:47:05;;;;;;;1.67;1.33;;;6.30;99.90;;;;;;4934075;29;20443;-94
2021/12/30 07:49:32;;;;;;;0.80;0.60;;;6.30;99.90;;;;;;4932079;29;20463;-94
2021/12/30 07:51:58;;;;;;;2.97;2.77;;;6.30;99.90;;;;;;4935699;28;20865;-94
2021/12/30 07:54:24;;;;;;;0.80;0.70;;;6.30;99.90;;;;;;4941454;28;20521;-93
2021/12/30 07:56:51;;;;;;;0.80;0.70;;;6.30;99.90;;;;;;4940557;29;20439;-94
2021/12/30 07:59:16;;;;;;;1.37;1.23;;;6.40;99.90;;;;;;4925775;29;20459;-94
2021/12/30 08:01:42;;;;;;;2.00;1.90;;;6.30;99.90;;;;;;4945938;29;20446;-95
2021/12/30 08:04:08;;;;;;;0.80;0.70;;;6.30;99.90;;;;;;4945345;29;20218;-93
2021/12/30 08:06:38;;;;;;;1.43;1.33;;;6.30;99.90;;;;;;4929862;29;20708;-95
2021/12/30 08:09:03;;;;;;;0.80;0.70;;;6.40;99.90;;;;;;4939132;28;20194;-94
2021/12/30 08:11:29;;;;;;;1.43;1.03;;;6.40;99.90;;;;;;4929473;29;20445;-94
2021/12/30 08:13:54;;;;;;;1.10;1.00;;;6.40;99.90;;;;;;4938936;28;20198;-94
2021/12/30 08:16:20;;;;;;;1.40;1.30;;;6.40;99.90;;;;;;4951740;29;20218;-94
2021/12/30 08:18:46;;;;;;;1.33;1.23;;;6.50;99.90;;;;;;4943345;29;20187;-95
2021/12/30 08:21:11;;;;;;;1.83;1.73;;;6.50;99.90;;;;;;4939892;29;20197;-93
2021/12/30 08:23:38;;;;;;;0.80;0.70;;;6.60;99.90;;;;;;4940872;28;20781;-96
2021/12/30 08:26:04;;;;;;;0.80;0.70;;;6.60;99.90;;;;;;4946028;29;20460;-94
2021/12/30 08:28:30;;;;;;;1.67;1.57;;;6.60;99.90;;;;;;4935855;29;20521;-94
2021/12/30 08:30:56;;;;;;;2.03;1.07;;;6.60;99.90;;;;;;4930345;28;20268;-94
2021/12/30 08:33:22;;;;;;;0.80;0.77;;;6.60;99.90;;;;;;4925892;28;20206;-94
2021/12/30 08:35:48;;;;;;;0.80;0.70;;;6.60;99.90;;;;;;4931070;29;20588;-94
2021/12/30 08:38:13;;;;;;;0.80;0.70;;;6.60;99.90;;;;;;4961228;28;20191;-93
2021/12/30 08:40:39;;;;;;;5.23;3.10;;;6.70;99.90;;;;;;4934740;29;20461;-95
2021/12/30 08:43:06;;;;;;;0.87;0.80;;;6.60;99.90;;;;;;4934284;28;20223;-95
2021/12/30 08:45:36;;;;;;;1.20;0.97;;;6.70;99.90;;;;;;4938486;29;20230;-93
2021/12/30 08:48:03;;;;;;;0.80;0.70;;;6.70;99.90;;;;;;4933317;29;20450;-94
2021/12/30 08:50:28;;;;;;;2.40;1.37;;;6.70;99.90;;;;;;4933830;28;20447;-93
2021/12/30 08:52:54;;;;;;;0.80;0.70;;;6.70;99.90;;;;;;4935816;29;21159;-95
2021/12/30 08:55:20;;;;;;;1.00;0.90;;;6.70;99.90;;;;;;4938671;29;20192;-93
2021/12/30 08:57:47;;;;;;;1.37;0.87;;;6.70;99.90;;;;;;4939747;29;20197;-94
2021/12/30 09:00:23;;;;;;;0.87;0.80;;;6.70;99.90;;;;;;4941215;28;20764;-95
2021/12/30 09:02:49;;;;;;;0.80;0.70;;;6.70;99.90;;;;;;4926176;29;20442;-95
2021/12/30 09:05:15;;;;;;;1.57;1.20;;;6.70;99.90;;;;;;4929976;28;20521;-89
2021/12/30 09:07:41;;;;;;;0.90;0.80;;;6.70;99.90;;;;;;4927744;29;21242;-90
2021/12/30 09:10:09;;;;;;;0.83;0.73;;;6.70;99.90;;;;;;4931814;28;20453;-92
2021/12/30 09:12:35;;;;;;;0.80;0.70;;;6.70;99.90;;;;;;4934449;29;20235;-91
2021/12/30 09:15:05;;;;;;;0.80;0.60;;;6.80;99.90;;;;;;4928593;29;20447;-90
2021/12/30 09:17:31;;;;;;;1.83;1.27;;;6.80;99.90;;;;;;4929244;29;20443;-91
2021/12/30 09:19:57;;;;;;;1.10;0.80;;;6.80;99.90;;;;;;4930379;29;20442;-90
2021/12/30 09:22:23;;;;;;;1.37;1.17;;;6.80;99.90;;;;;;4930131;29;20692;-90
2021/12/30 09:24:48;;;;;;;1.53;1.40;;;6.80;99.90;;;;;;4929632;29;20222;-90
2021/12/30 09:27:14;;;;;;;0.80;0.70;;;6.90;99.90;;;;;;4929467;28;20655;-91
2021/12/30 09:29:39;;;;;;;0.80;0.70;;;6.90;99.90;;;;;;4930665;29;20222;-89
2021/12/30 09:32:05;;;;;;;3.80;2.10;;;6.90;99.90;;;;;;4924826;29;20444;-90
2021/12/30 09:34:31;;;;;;;1.27;1.07;;;6.80;99.90;;;;;;4939029;29;20209;-89
2021/12/30 09:36:56;;;;;;;0.93;0.93;;;6.90;99.90;;;;;;4928137;29;20467;-89
2021/12/30 09:39:22;;;;;;;1.30;1.20;;;6.90;99.90;;;;;;4925315;28;20309;-89
2021/12/30 09:41:47;;;;;;;2.40;1.90;;;6.90;99.90;;;;;;4934885;29;20653;-91
2021/12/30 09:44:16;;;;;;;1.17;1.07;;;6.90;99.90;;;;;;4930004;28;20695;-89
2021/12/30 09:46:42;;;;;;;0.80;0.70;;;7.00;99.90;;;;;;4935194;29;20193;-90
2021/12/30 09:49:09;;;;;;;0.80;0.70;;;7.00;99.90;;;;;;4936958;29;20463;-90
2021/12/30 09:51:36;;;;;;;1.70;1.03;;;7.10;99.90;;;;;;4935041;28;20477;-91
2021/12/30 09:54:03;;;;;;;0.80;0.80;;;7.10;99.90;;;;;;4947490;28;20451;-90
2021/12/30 09:56:29;;;;;;;2.30;1.43;;;7.10;99.90;;;;;;4928991;29;20438;-90
2021/12/30 09:58:55;;;;;;;0.80;0.70;;;7.10;99.90;;;;;;4935958;29;20450;-90
2021/12/30 10:01:21;;;;;;;0.80;0.60;;;7.10;99.90;;;;;;4948246;28;20540;-91
2021/12/30 10:03:46;;;;;;;0.80;0.60;;;7.20;99.90;;;;;;4938233;28;20214;-90
2021/12/30 10:06:15;;;;;;;2.27;2.17;;;7.20;99.90;;;;;;4932332;29;20182;-90
2021/12/30 10:09:06;;;;;;;1.10;1.00;;;7.20;99.90;;;;;;4932240;29;20754;-90
2021/12/30 10:11:50;;;;;;;1.17;1.07;;;7.20;99.90;;;;;;4941462;29;20475;-91
2021/12/30 10:14:34;;;;;;;1.10;1.00;;;7.20;99.90;;;;;;4936987;29;20451;-90
2021/12/30 10:17:16;;;;;;;1.10;1.00;;;7.30;99.90;;;;;;4931386;28;20969;-91
2021/12/30 10:19:43;;;;;;;2.60;1.37;;;7.30;99.90;;;;;;4933293;29;20509;-89
2021/12/30 10:22:13;;;;;;;1.33;1.23;;;7.30;99.90;;;;;;4948687;28;20469;-89
2021/12/30 10:24:39;;;;;;;8.10;1.53;;;7.30;99.90;;;;;;4932112;29;20486;-90
2021/12/30 10:27:05;;;;;;;1.17;1.07;;;7.30;99.90;;;;;;4942307;28;21009;-89
2021/12/30 10:29:45;;;;;;;0.80;0.70;;;7.30;99.90;;;;;;4938627;28;20437;-90
2021/12/30 10:32:20;;;;;;;0.80;0.80;;;7.40;99.90;;;;;;4951363;28;20610;-89
2021/12/30 10:35:12;;;;;;;2.83;2.60;;;7.40;99.90;;;;;;4933871;29;20434;-89
2021/12/30 10:37:43;;;;;;;0.80;0.70;;;7.50;99.90;;;;;;4943306;28;20450;-89
2021/12/30 10:40:30;;;;;;;0.90;0.90;;;7.60;99.90;;;;;;4951239;28;20481;-90
2021/12/30 10:43:20;;;;;;;0.80;0.70;;;7.60;99.90;;;;;;4965622;28;20437;-89
2021/12/30 10:46:04;;;;;;;0.80;0.60;;;7.60;99.90;;;;;;4948932;28;20466;-90
2021/12/30 10:48:31;;;;;;;0.80;0.70;;;7.70;99.90;;;;;;4939793;28;20429;-89
2021/12/30 10:51:21;;;;;;;0.80;0.70;;;7.70;99.90;;;;;;4924461;29;20486;-92
2021/12/30 10:53:49;;;;;;;0.80;0.70;;;7.70;99.90;;;;;;4952344;28;20446;-92
2021/12/30 10:56:29;;;;;;;0.80;0.70;;;7.80;99.90;;;;;;4968813;28;20520;-92
2021/12/30 10:59:07;;;;;;;0.80;0.60;;;7.80;99.90;;;;;;4943740;29;20438;-92
2021/12/30 11:01:38;;;;;;;0.80;0.70;;;7.80;99.90;;;;;;4939046;29;20438;-92
2021/12/30 11:04:04;;;;;;;0.80;0.60;;;7.90;99.90;;;;;;4929373;28;20631;-93
2021/12/30 11:06:29;;;;;;;0.80;0.70;;;7.90;99.90;;;;;;4967209;28;20872;-92
2021/12/30 11:09:25;;;;;;;1.00;0.90;;;8.00;99.90;;;;;;4930208;28;20190;-92
2021/12/30 11:11:59;;;;;;;0.80;0.67;;;8.00;99.90;;;;;;4943936;28;20203;-93
2021/12/30 11:14:32;;;;;;;0.80;0.70;;;8.10;99.90;;;;;;4933535;28;20429;-92
2021/12/30 11:17:14;;;;;;;2.90;2.70;;;8.10;99.90;;;;;;4960051;28;20490;-94
2021/12/30 11:19:46;;;;;;;0.90;0.77;;;8.10;99.90;;;;;;4958400;28;20533;-94
2021/12/30 11:22:15;;;;;;;0.80;0.70;;;8.10;99.90;;;;;;4940820;29;20438;-94
2021/12/30 11:24:42;;;;;;;1.20;1.10;;;8.20;99.90;;;;;;4958315;28;20470;-93
2021/12/30 11:27:10;;;;;;;0.97;0.87;;;8.10;99.90;;;;;;4943110;29;20961;-94
2021/12/30 11:29:37;;;;;;;0.80;0.60;;;8.10;99.90;;;;;;4937306;29;20482;-95
2021/12/30 11:32:05;;;;;;;0.80;0.70;;;8.10;99.90;;;;;;4934785;29;20458;-95
2021/12/30 11:34:31;;;;;;;0.80;0.70;;;8.10;99.90;;;;;;4945353;28;20465;-93
2021/12/30 11:36:56;;;;;;;0.90;0.73;;;8.20;99.90;;;;;;4959789;28;20941;-95
2021/12/30 11:39:24;;;;;;;2.73;1.20;;;8.20;99.90;;;;;;4935168;28;20323;-95
2021/12/30 11:41:56;;;;;;;0.80;0.70;;;8.20;99.90;;;;;;4936015;29;20191;-96
2021/12/30 11:44:38;;;;;;;0.80;0.80;;;8.20;99.90;;;;;;4947751;29;20526;-95
2021/12/30 11:47:10;;;;;;;0.90;0.80;;;8.20;99.90;;;;;;4952738;28;20473;-96
2021/12/30 11:49:56;;;;;;;0.80;0.60;;;8.20;99.90;;;;;;4940229;29;20450;-96
2021/12/30 11:52:47;;;;;;;0.80;0.63;;;8.20;99.90;;;;;;4948273;29;20462;-95
2021/12/30 11:55:37;;;;;;;0.80;0.60;;;8.30;99.90;;;;;;4940234;28;20437;-95
2021/12/30 11:58:49;;;;;;;0.80;0.60;;;8.30;99.90;;;;;;4955831;29;20494;-95
2021/12/30 12:01:17;;;;;;;0.80;0.60;;;8.30;99.90;;;;;;4948315;28;20447;-96
2021/12/30 12:04:05;;;;;;;1.10;0.87;;;8.40;99.90;;;;;;4961632;28;20470;-95
2021/12/30 12:06:38;;;;;;;0.80;0.60;;;8.40;99.90;;;;;;4950979;29;20428;-95
2021/12/30 12:09:06;;;;;;;0.80;0.60;;;8.50;99.90;;;;;;4944949;29;20446;-96
2021/12/30 12:11:45;;;;;;;0.80;0.67;;;8.50;99.90;;;;;;4944709;29;20773;-96
2021/12/30 12:14:13;;;;;;;0.90;0.70;;;8.60;99.90;;;;;;4952393;29;20433;-96
2021/12/30 12:16:44;;;;;;;2.87;1.00;;;8.60;99.90;;;;;;4957001;28;20446;-95
2021/12/30 12:19:11;;;;;;;0.80;0.60;;;8.70;99.90;;;;;;4965074;28;20438;-96
2021/12/30 12:21:42;;;;;;;0.90;0.80;;;8.70;99.90;;;;;;4958634;28;20466;-96
2021/12/30 12:24:25;;;;;;;3.53;1.57;;;8.70;99.90;;;;;;4977542;28;20473;-95
2021/12/30 12:26:54;;;;;;;0.80;0.60;;;8.80;99.90;;;;;;4941819;29;20458;-96
2021/12/30 12:29:43;;;;;;;0.80;0.60;;;8.80;99.90;;;;;;4953116;28;20589;-96
2021/12/30 12:32:18;;;;;;;1.53;1.43;;;8.80;99.90;;;;;;4943511;28;20438;-96
2021/12/30 12:34:53;;;;;;;0.80;0.60;;;8.90;99.90;;;;;;4966754;28;20671;-96
2021/12/30 12:37:37;;;;;;;0.83;0.67;;;9.00;99.90;;;;;;4956144;28;20441;-94
2021/12/30 12:40:16;;;;;;;0.80;0.60;;;9.10;99.90;;;;;;4949892;29;20462;-93
2021/12/30 12:42:51;;;;;;;0.90;0.70;;;9.00;99.90;;;;;;4945850;29;20434;-92
2021/12/30 12:45:36;;;;;;;0.80;0.50;;;9.10;99.90;;;;;;4946999;29;20502;-88
2021/12/30 12:48:17;;;;;;;0.83;0.73;;;9.20;99.90;;;;;;4952596;28;20478;-87
2021/12/30 12:50:49;;;;;;;0.80;0.60;;;9.20;99.90;;;;;;4929450;29;20501;-88
2021/12/30 12:53:38;;;;;;;1.03;0.80;;;9.20;99.90;;;;;;4933495;29;21130;-85
2021/12/30 12:56:30;;;;;;;0.80;0.60;;;9.30;99.90;;;;;;4924804;29;20672;-86
2021/12/30 12:58:58;;;;;;;0.80;0.60;;;9.40;99.90;;;;;;4938039;29;21038;-90
2021/12/30 13:01:26;;;;;;;0.80;0.63;;;9.40;99.90;;;;;;4933743;28;20467;-91
2021/12/30 13:03:56;;;;;;;0.80;0.60;;;9.50;99.90;;;;;;4928809;29;20466;-91
2021/12/30 13:06:43;;;;;;;1.40;1.17;;;9.40;99.90;;;;;;4965807;28;20453;-92
2021/12/30 13:09:14;;;;;;;0.80;0.60;;;9.50;99.90;;;;;;4945891;28;20498;-93